createdAt,value
2022-08-10T00:01:52.145Z,1.80
2022-08-10T00:04:21.203Z,1.65
2022-08-10T00:06:48.897Z,2.25
2022-08-10T00:09:15.495Z,1.75
2022-08-10T00:11:42.112Z,1.85
2022-08-10T00:14:10.130Z,1.75
2022-08-10T00:16:36.756Z,1.50
2022-08-10T00:19:03.460Z,1.85
2022-08-10T00:21:30.299Z,1.88
2022-08-10T00:23:56.924Z,1.85
2022-08-10T00:26:23.557Z,2.13
2022-08-10T00:28:50.175Z,1.60
2022-08-10T00:31:18.153Z,1.90
2022-08-10T00:33:44.774Z,2.10
2022-08-10T00:36:11.575Z,2.03
2022-08-10T00:38:38.237Z,2.20
2022-08-10T00:41:05.266Z,2.25
2022-08-10T00:43:32.045Z,2.15
2022-08-10T00:46:00.425Z,1.88
2022-08-10T00:48:29.742Z,1.77
2022-08-10T00:50:58.293Z,1.88
2022-08-10T00:53:25.030Z,1.95
2022-08-10T00:57:15.098Z,1.92
2022-08-10T00:58:40.336Z,1.90
2022-08-10T01:01:07.015Z,1.63
2022-08-10T01:04:54.155Z,2.05
2022-08-10T01:06:30.117Z,1.60
2022-08-10T01:09:02.708Z,1.52
2022-08-10T01:12:38.943Z,1.58
2022-08-10T01:14:28.739Z,1.73
2022-08-10T01:17:00.752Z,2.00
2022-08-10T01:19:49.130Z,1.85
2022-08-10T01:22:31.947Z,1.90
2022-08-10T01:25:34.528Z,2.00
2022-08-10T01:28:34.064Z,2.08
2022-08-10T01:31:04.352Z,1.95
2022-08-10T01:34:02.349Z,1.77
2022-08-10T01:36:31.988Z,1.70
2022-08-10T01:39:04.048Z,1.90
2022-08-10T01:41:45.774Z,1.90
2022-08-10T01:44:16.663Z,1.88
2022-08-10T01:46:52.968Z,1.80
2022-08-10T01:49:25.684Z,1.63
2022-08-10T01:51:56.310Z,1.90
2022-08-10T01:54:30.588Z,1.75
2022-08-10T01:56:59.766Z,1.85
2022-08-10T02:02:01.704Z,1.80
2022-08-10T02:04:30.330Z,2.05
2022-08-10T02:06:58.749Z,1.70
2022-08-10T02:09:27.714Z,1.77
2022-08-10T02:12:07.250Z,1.60
2022-08-10T02:14:38.728Z,1.52
2022-08-10T02:18:00.282Z,1.90
2022-08-10T02:20:03.435Z,1.77
2022-08-10T02:22:36.625Z,2.38
2022-08-10T02:25:07.813Z,1.60
2022-08-10T02:27:35.799Z,1.77
2022-08-10T02:30:04.156Z,1.70
2022-08-10T02:32:37.893Z,1.93
2022-08-10T02:35:13.195Z,2.03
2022-08-10T02:37:52.806Z,2.22
2022-08-10T02:45:12.179Z,1.58
2022-08-10T02:45:22.692Z,1.50
2022-08-10T02:46:09.293Z,1.90
2022-08-10T02:48:42.701Z,1.83
2022-08-10T02:51:15.020Z,1.45
2022-08-10T02:53:55.975Z,1.63
2022-08-10T02:56:28.467Z,1.80
2022-08-10T02:59:03.914Z,1.70
2022-08-10T03:01:33.978Z,2.20
2022-08-10T03:04:06.381Z,1.63
2022-08-10T03:06:37.082Z,1.70
2022-08-10T03:09:08.387Z,1.75
2022-08-10T03:12:35.595Z,2.25
2022-08-10T03:14:25.579Z,1.70
2022-08-10T03:16:54.473Z,1.98
2022-08-10T03:20:35.737Z,1.98
2022-08-10T03:22:12.517Z,1.67
2022-08-10T03:24:41.281Z,1.92
2022-08-10T03:27:09.271Z,1.80
2022-08-10T03:30:28.562Z,1.60
2022-08-10T03:32:24.968Z,1.80
2022-08-10T03:34:53.875Z,1.70
2022-08-10T03:37:20.761Z,1.70
2022-08-10T03:39:47.467Z,2.22
2022-08-10T03:42:16.172Z,2.47
2022-08-10T03:44:46.214Z,2.10
2022-08-10T03:47:19.179Z,2.03
2022-08-10T03:52:15.656Z,1.77
2022-08-10T03:54:43.276Z,1.70
2022-08-10T03:57:10.715Z,1.77
2022-08-10T03:59:38.266Z,2.05
2022-08-10T04:02:44.991Z,2.00
2022-08-10T04:04:52.347Z,1.92
2022-08-10T04:07:21.057Z,2.13
2022-08-10T04:09:55.375Z,1.90
2022-08-10T04:12:23.405Z,2.13
2022-08-10T04:14:52.855Z,2.00
2022-08-10T04:17:59.296Z,2.03
2022-08-10T04:20:16.228Z,1.83
2022-08-10T04:22:45.744Z,1.80
2022-08-10T04:25:14.563Z,2.00
2022-08-10T04:27:41.912Z,1.80
2022-08-10T04:30:10.277Z,1.77
2022-08-10T04:32:37.880Z,2.50
2022-08-10T04:35:06.702Z,1.77
2022-08-10T04:37:35.179Z,1.85
2022-08-10T04:40:04.247Z,2.00
2022-08-10T04:42:51.018Z,2.10
2022-08-10T04:45:17.630Z,2.00
2022-08-10T04:47:57.672Z,1.90
2022-08-10T04:50:28.543Z,1.85
2022-08-10T04:53:08.750Z,2.10
2022-08-10T04:55:45.787Z,1.90
2022-08-10T04:58:12.794Z,2.17
2022-08-10T05:00:39.536Z,2.30
2022-08-10T05:03:06.304Z,1.98
2022-08-10T05:05:32.954Z,2.10
2022-08-10T05:07:59.615Z,2.03
2022-08-10T05:10:26.292Z,2.33
2022-08-10T05:12:54.321Z,2.22
2022-08-10T05:15:21.194Z,2.10
2022-08-10T05:18:04.683Z,2.17
2022-08-10T05:20:34.912Z,1.85
2022-08-10T05:23:01.653Z,2.90
2022-08-10T05:25:28.566Z,2.05
2022-08-10T05:27:57.773Z,2.20
2022-08-10T05:32:58.468Z,2.20
2022-08-10T05:35:28.439Z,2.03
2022-08-10T05:38:10.339Z,2.00
2022-08-10T05:40:46.511Z,2.13
2022-08-10T05:43:17.317Z,2.28
2022-08-10T05:46:19.939Z,2.30
2022-08-10T05:48:55.571Z,2.38
2022-08-10T05:51:20.617Z,2.03
2022-08-10T05:54:02.335Z,1.83
2022-08-10T05:56:53.198Z,2.00
2022-08-10T06:00:35.830Z,2.08
2022-08-10T06:02:31.095Z,2.17
2022-08-10T06:04:58.603Z,1.90
2022-08-10T06:07:26.790Z,1.90
2022-08-10T06:10:00.038Z,2.00
2022-08-10T06:12:38.911Z,2.03
2022-08-10T06:15:21.854Z,1.75
2022-08-10T06:18:05.009Z,1.90
2022-08-10T06:20:35.916Z,1.58
2022-08-10T06:23:04.385Z,1.80
2022-08-10T06:26:11.793Z,1.50
2022-08-10T06:28:18.987Z,1.88
2022-08-10T06:30:49.238Z,1.80
2022-08-10T06:33:18.564Z,1.55
2022-08-10T06:35:49.653Z,2.03
2022-08-10T06:38:17.098Z,2.25
2022-08-10T06:40:47.218Z,1.77
2022-08-10T06:43:17.001Z,2.03
2022-08-10T06:46:07.711Z,2.05
2022-08-10T06:48:37.905Z,1.88
2022-08-10T06:51:07.707Z,1.70
2022-08-10T06:53:53.038Z,1.70
2022-08-10T06:56:35.989Z,1.92
2022-08-10T06:59:21.071Z,1.70
2022-08-10T07:01:54.538Z,1.80
2022-08-10T07:04:33.044Z,1.80
2022-08-10T07:07:04.177Z,1.40
2022-08-10T07:09:32.387Z,1.90
2022-08-10T07:12:07.584Z,1.70
2022-08-10T07:14:38.674Z,1.90
2022-08-10T07:17:15.247Z,1.90
2022-08-10T07:19:49.599Z,1.73
2022-08-10T07:23:01.374Z,1.67
2022-08-10T07:25:08.775Z,1.80
2022-08-10T07:30:22.617Z,1.90
2022-08-10T07:32:52.359Z,1.70
2022-08-10T07:35:21.478Z,1.85
2022-08-10T07:40:19.362Z,2.08
2022-08-10T07:42:48.865Z,1.67
2022-08-10T07:45:15.624Z,1.90
2022-08-10T07:47:54.486Z,1.80
2022-08-10T07:50:25.696Z,1.92
2022-08-10T07:52:55.473Z,2.10
2022-08-10T07:56:03.448Z,1.90
2022-08-10T07:58:10.249Z,2.10
2022-08-10T08:00:39.363Z,2.10
2022-08-10T08:05:57.708Z,2.08
2022-08-10T08:08:22.894Z,2.30
2022-08-10T08:10:50.552Z,2.10
2022-08-10T08:13:22.256Z,2.33
2022-08-10T08:16:20.256Z,1.88
2022-08-10T08:18:39.811Z,1.77
2022-08-10T08:24:02.607Z,2.05
2022-08-10T08:24:30.064Z,2.15
2022-08-10T08:26:51.994Z,1.83
2022-08-10T08:29:20.215Z,1.92
2022-08-10T08:32:00.852Z,1.90
2022-08-10T08:34:30.520Z,1.70
2022-08-10T08:37:00.380Z,2.40
2022-08-10T08:39:27.235Z,2.05
2022-08-10T08:42:03.511Z,2.15
2022-08-10T08:44:38.984Z,2.15
2022-08-10T08:48:04.720Z,2.05
2022-08-10T08:50:37.190Z,2.20
2022-08-10T08:54:01.693Z,2.35
2022-08-10T08:56:21.734Z,1.98
2022-08-10T08:59:05.892Z,1.80
2022-08-10T09:01:49.971Z,1.60
2022-08-10T09:04:44.238Z,2.40
2022-08-10T09:08:07.619Z,1.70
2022-08-10T09:10:45.377Z,1.75
2022-08-10T09:13:20.179Z,1.63
2022-08-10T09:15:56.418Z,2.05
2022-08-10T09:18:34.687Z,2.25
2022-08-10T09:21:09.491Z,2.05
2022-08-10T09:24:02.060Z,1.80
2022-08-10T09:26:42.546Z,1.95
2022-08-10T09:29:13.633Z,1.80
2022-08-10T09:32:54.881Z,1.70
2022-08-10T09:36:24.402Z,1.83
2022-08-10T09:38:00.898Z,1.98
2022-08-10T09:40:59.481Z,2.08
2022-08-10T09:43:36.519Z,1.70
2022-08-10T09:46:12.227Z,2.03
2022-08-10T09:49:03.020Z,2.40
2022-08-10T09:51:45.965Z,1.83
2022-08-10T09:54:24.440Z,1.90
2022-08-10T09:57:17.836Z,2.20
2022-08-10T10:00:00.460Z,2.20
2022-08-10T10:02:37.996Z,1.67
2022-08-10T10:05:17.401Z,1.90
2022-08-10T10:07:52.490Z,1.70
2022-08-10T10:10:24.463Z,2.03
2022-08-10T10:13:03.297Z,2.00
2022-08-10T10:15:37.501Z,1.75
2022-08-10T10:18:22.158Z,2.00
2022-08-10T10:21:00.255Z,2.08
2022-08-10T10:23:40.428Z,2.10
2022-08-10T10:26:20.950Z,2.50
2022-08-10T10:31:57.641Z,1.80
2022-08-10T10:34:33.094Z,1.77
2022-08-10T10:37:01.282Z,1.58
2022-08-10T10:39:29.100Z,1.93
2022-08-10T10:42:11.752Z,1.63
2022-08-10T10:44:55.977Z,1.70
2022-08-10T10:47:41.808Z,1.77
2022-08-10T10:50:12.853Z,2.22
2022-08-10T10:52:48.816Z,1.85
2022-08-10T10:55:23.065Z,1.88
2022-08-10T10:58:00.961Z,2.00
2022-08-10T11:00:39.169Z,2.10
2022-08-10T11:03:21.406Z,1.90
2022-08-10T11:06:00.896Z,1.63
2022-08-10T11:08:34.508Z,1.80
2022-08-10T11:11:20.458Z,2.00
2022-08-10T11:14:25.178Z,1.88
2022-08-10T11:17:00.572Z,1.60
2022-08-10T11:20:03.002Z,1.90
2022-08-10T11:22:36.525Z,1.95
2022-08-10T11:25:11.817Z,2.20
2022-08-10T11:27:46.902Z,1.70
2022-08-10T11:30:17.795Z,1.98
2022-08-10T11:32:57.873Z,1.75
2022-08-10T11:35:36.197Z,1.80
2022-08-10T11:38:31.397Z,1.92
2022-08-10T11:42:05.259Z,2.03
2022-08-10T11:44:03.188Z,1.95
2022-08-10T11:46:33.980Z,1.90
2022-08-10T11:49:08.462Z,1.75
2022-08-10T11:51:44.558Z,2.30
2022-08-10T11:54:21.438Z,1.88
2022-08-10T11:56:50.602Z,1.75
2022-08-10T11:59:21.879Z,1.90
2022-08-10T12:01:51.026Z,1.80
2022-08-10T12:04:19.077Z,1.85
2022-08-10T12:06:56.669Z,1.88
2022-08-10T12:10:08.576Z,1.80
2022-08-10T12:12:12.817Z,1.83
2022-08-10T12:14:46.670Z,1.85
2022-08-10T12:17:18.487Z,1.95
2022-08-10T12:20:01.611Z,2.40
2022-08-10T12:22:38.747Z,1.90
2022-08-10T12:25:49.682Z,1.70
2022-08-10T12:28:09.232Z,2.10
2022-08-10T12:30:54.027Z,2.33
2022-08-10T12:33:25.114Z,1.85
2022-08-10T12:36:17.930Z,1.90
2022-08-10T12:38:57.099Z,2.10
2022-08-10T12:41:43.175Z,1.95
2022-08-10T12:44:15.760Z,1.80
2022-08-10T12:46:54.000Z,2.22
2022-08-10T12:49:30.329Z,1.80
2022-08-10T12:52:03.118Z,1.92
2022-08-10T12:54:35.426Z,2.00
2022-08-10T12:57:05.631Z,1.95
2022-08-10T12:59:43.362Z,2.00
2022-08-10T13:02:13.973Z,1.90
2022-08-10T13:04:42.919Z,1.75
2022-08-10T13:10:04.395Z,2.10
2022-08-10T13:12:37.410Z,2.10
2022-08-10T13:15:43.168Z,2.30
2022-08-10T13:18:04.963Z,1.90
2022-08-10T13:20:35.666Z,1.70
2022-08-10T13:23:13.344Z,2.08
2022-08-10T13:25:46.903Z,1.80
2022-08-10T13:28:35.946Z,1.90
2022-08-10T13:31:07.663Z,1.98
2022-08-10T13:34:39.390Z,2.00
2022-08-10T13:36:35.128Z,2.05
2022-08-10T13:39:02.981Z,2.10
2022-08-10T13:41:35.261Z,2.15
2022-08-10T13:44:01.958Z,1.90
2022-08-10T13:46:29.716Z,1.90
2022-08-10T13:49:00.316Z,2.03
2022-08-10T13:51:54.468Z,2.00
2022-08-10T13:54:16.892Z,1.90
2022-08-10T13:56:47.423Z,2.03
2022-08-10T13:59:16.258Z,1.85
2022-08-10T14:01:48.874Z,3.17
2022-08-10T14:04:17.148Z,2.05
2022-08-10T14:06:52.126Z,2.40
2022-08-10T14:09:27.055Z,1.90
2022-08-10T14:11:56.540Z,2.13
2022-08-10T14:14:25.588Z,1.90
2022-08-10T14:16:53.582Z,1.83
2022-08-10T14:19:24.745Z,2.17
2022-08-10T14:21:52.099Z,2.22
2022-08-10T14:24:23.612Z,1.90
2022-08-10T14:26:57.024Z,2.17
2022-08-10T14:29:26.083Z,1.95
2022-08-10T14:32:01.974Z,2.10
2022-08-10T14:36:08.398Z,2.65
2022-08-10T14:37:23.696Z,2.03
2022-08-10T14:39:56.478Z,2.10
2022-08-10T14:42:28.007Z,2.10
2022-08-10T14:45:00.892Z,1.80
2022-08-10T14:47:52.094Z,1.85
2022-08-10T14:50:31.547Z,2.00
2022-08-10T14:53:05.521Z,2.30
2022-08-10T14:55:57.800Z,2.75
2022-08-10T14:58:26.889Z,2.05
2022-08-10T15:00:56.310Z,2.10
2022-08-10T15:04:02.003Z,1.90
2022-08-10T15:06:17.112Z,1.90
2022-08-10T15:08:47.049Z,2.33
2022-08-10T15:12:12.892Z,2.17
2022-08-10T15:14:25.923Z,2.20
2022-08-10T15:16:55.513Z,1.95
2022-08-10T15:20:00.941Z,2.15
2022-08-10T15:22:36.578Z,2.42
2022-08-10T15:25:18.099Z,2.53
2022-08-10T15:27:53.877Z,2.10
2022-08-10T15:30:30.414Z,1.90
2022-08-10T15:33:01.632Z,1.98
2022-08-10T15:35:30.129Z,1.95
2022-08-10T15:38:03.593Z,1.90
2022-08-10T15:40:45.926Z,2.30
2022-08-10T15:43:25.699Z,2.50
2022-08-10T15:46:02.703Z,1.60
2022-08-10T15:48:37.932Z,2.28
2022-08-10T15:51:17.258Z,2.22
2022-08-10T15:53:49.872Z,2.17
2022-08-10T15:56:27.828Z,1.90
2022-08-10T15:59:07.860Z,1.88
2022-08-10T16:02:04.534Z,1.60
2022-08-10T16:04:31.719Z,2.25
2022-08-10T16:07:02.544Z,2.00
2022-08-10T16:10:26.621Z,2.00
2022-08-10T16:12:30.357Z,1.90
2022-08-10T16:15:00.580Z,2.25
2022-08-10T16:17:28.469Z,2.22
2022-08-10T16:19:58.942Z,2.17
2022-08-10T16:22:35.960Z,1.92
2022-08-10T16:25:12.168Z,2.30
2022-08-10T16:27:40.768Z,2.20
2022-08-10T16:30:07.917Z,2.20
2022-08-10T16:32:36.952Z,2.10
2022-08-10T16:35:09.189Z,2.03
2022-08-10T16:37:58.857Z,1.75
2022-08-10T16:40:27.833Z,2.33
2022-08-10T16:42:56.013Z,1.83
2022-08-10T16:45:30.867Z,2.20
2022-08-10T16:47:58.910Z,2.10
2022-08-10T16:50:28.752Z,2.17
2022-08-10T16:52:57.599Z,2.00
2022-08-10T16:55:48.635Z,2.33
2022-08-10T16:58:13.921Z,2.20
2022-08-10T17:00:41.671Z,2.58
2022-08-10T17:03:22.914Z,1.90
2022-08-10T17:06:10.909Z,2.25
2022-08-10T17:08:41.402Z,2.10
2022-08-10T17:11:16.465Z,2.53
2022-08-10T17:13:43.529Z,2.58
2022-08-10T17:16:12.270Z,2.70
2022-08-10T17:18:41.385Z,2.63
2022-08-10T17:21:17.798Z,2.45
2022-08-10T17:23:47.799Z,2.70
2022-08-10T17:26:18.680Z,2.58
2022-08-10T17:29:07.736Z,2.63
2022-08-10T17:31:54.782Z,2.50
2022-08-10T17:34:28.803Z,2.13
2022-08-10T17:37:00.005Z,2.90
2022-08-10T17:39:31.446Z,3.00
2022-08-10T17:42:01.888Z,3.10
2022-08-10T17:44:34.581Z,2.78
2022-08-10T17:47:11.098Z,3.00
2022-08-10T17:49:39.915Z,3.03
2022-08-10T17:52:10.319Z,3.22
2022-08-10T17:54:41.490Z,2.80
2022-08-10T17:57:10.899Z,2.80
2022-08-10T17:59:39.172Z,2.92
2022-08-10T18:02:08.566Z,3.10
2022-08-10T18:04:42.135Z,2.85
2022-08-10T18:07:12.336Z,2.97
2022-08-10T18:09:42.458Z,2.85
2022-08-10T18:12:17.688Z,2.97
2022-08-10T18:14:48.262Z,2.97
2022-08-10T18:17:20.483Z,3.20
2022-08-10T18:19:53.024Z,3.15
2022-08-10T18:22:23.684Z,2.60
2022-08-10T18:24:51.667Z,2.92
2022-08-10T18:27:19.848Z,2.28
2022-08-10T18:29:50.901Z,2.70
2022-08-10T18:32:20.296Z,2.72
2022-08-10T18:34:49.480Z,2.78
2022-08-10T18:37:20.321Z,3.25
2022-08-10T18:39:50.393Z,2.97
2022-08-10T18:42:21.257Z,2.80
2022-08-10T18:44:53.483Z,2.95
2022-08-10T18:47:29.023Z,2.80
2022-08-10T18:50:00.858Z,2.85
2022-08-10T18:52:31.428Z,3.75
2022-08-10T18:55:14.363Z,3.15
2022-08-10T18:58:07.359Z,3.33
2022-08-10T19:00:41.022Z,3.33
2022-08-10T19:03:58.143Z,3.22
2022-08-10T19:06:55.464Z,3.28
2022-08-10T19:09:45.904Z,3.05
2022-08-10T19:12:32.142Z,3.42
2022-08-10T19:15:08.658Z,3.35
2022-08-10T19:18:06.174Z,3.10
2022-08-10T19:20:33.250Z,3.20
2022-08-10T19:23:15.837Z,3.70
2022-08-10T19:26:37.870Z,3.88
2022-08-10T19:28:47.141Z,3.15
2022-08-10T19:31:24.346Z,2.88
2022-08-10T19:34:22.302Z,3.83
2022-08-10T19:37:02.597Z,3.30
2022-08-10T19:39:50.353Z,4.32
2022-08-10T19:42:31.690Z,4.43
2022-08-10T19:45:56.134Z,4.07
2022-08-10T19:48:08.980Z,4.40
2022-08-10T19:50:43.865Z,4.20
2022-08-10T19:53:18.435Z,4.03
2022-08-10T19:56:18.463Z,3.53
2022-08-10T19:58:56.434Z,4.00
2022-08-10T20:01:26.149Z,3.55
2022-08-10T20:04:16.092Z,3.55
2022-08-10T20:06:45.804Z,3.70
2022-08-10T20:09:18.635Z,3.95
2022-08-10T20:11:51.376Z,4.05
2022-08-10T20:14:23.245Z,3.70
2022-08-10T20:16:58.426Z,4.85
2022-08-10T20:19:54.284Z,4.38
2022-08-10T20:22:29.273Z,4.35
2022-08-10T20:25:03.820Z,3.80
2022-08-10T20:28:00.709Z,4.35
2022-08-10T20:30:27.142Z,4.15
2022-08-10T20:32:59.478Z,3.75
2022-08-10T20:35:30.587Z,3.95
2022-08-10T20:38:08.200Z,4.00
2022-08-10T20:40:45.251Z,4.38
2022-08-10T20:43:22.352Z,3.95
2022-08-10T20:46:08.528Z,4.32
2022-08-10T20:48:43.850Z,3.92
2022-08-10T20:51:14.860Z,4.10
2022-08-10T20:53:46.819Z,4.55
2022-08-10T20:56:22.067Z,4.45
2022-08-10T20:59:15.748Z,4.72
2022-08-10T21:02:07.091Z,4.30
2022-08-10T21:04:47.493Z,4.57
2022-08-10T21:07:58.184Z,4.10
2022-08-10T21:10:38.724Z,4.03
2022-08-10T21:13:34.172Z,4.40
2022-08-10T21:16:13.129Z,4.57
2022-08-10T21:21:59.163Z,4.30
2022-08-10T21:24:33.331Z,4.35
2022-08-10T21:27:14.496Z,4.45
2022-08-10T21:29:56.032Z,4.95
2022-08-10T21:32:40.033Z,4.60
2022-08-10T21:35:37.487Z,4.35
2022-08-10T21:41:19.475Z,5.05
2022-08-10T21:43:59.512Z,4.32
2022-08-10T21:46:54.723Z,5.05
2022-08-10T21:49:37.271Z,5.60
2022-08-10T21:52:11.129Z,4.75
2022-08-10T21:54:47.675Z,4.72
2022-08-10T21:57:19.298Z,5.47
2022-08-10T21:59:51.253Z,4.63
2022-08-10T22:02:28.071Z,5.53
2022-08-10T22:04:59.440Z,5.30
2022-08-10T22:07:29.144Z,4.82
2022-08-10T22:10:04.575Z,4.55
2022-08-10T22:12:39.314Z,4.20
2022-08-10T22:15:17.494Z,4.70
2022-08-10T22:18:03.640Z,5.43
2022-08-10T22:20:34.377Z,5.70
2022-08-10T22:23:19.060Z,5.32
2022-08-10T22:26:01.110Z,5.05
2022-08-10T22:28:27.813Z,5.05
2022-08-10T22:31:24.473Z,4.00
2022-08-10T22:31:26.982Z,4.95
2022-08-10T22:31:31.183Z,5.43
2022-08-10T22:34:13.595Z,5.63
2022-08-10T22:36:59.670Z,4.95
2022-08-10T22:40:13.101Z,5.53
2022-08-10T22:42:59.347Z,4.50
2022-08-10T22:45:31.051Z,4.88
2022-08-10T22:47:59.220Z,4.93
2022-08-10T22:50:28.318Z,4.85
2022-08-10T22:53:03.671Z,4.97
2022-08-10T22:55:38.186Z,4.80
2022-08-10T22:58:13.733Z,4.95
2022-08-10T23:00:40.506Z,4.80
2022-08-10T23:03:12.727Z,4.43
2022-08-10T23:05:45.509Z,4.93
2022-08-10T23:08:29.900Z,4.70
2022-08-10T23:11:02.844Z,4.47
2022-08-10T23:13:36.162Z,4.57
2022-08-10T23:16:08.125Z,4.53
2022-08-10T23:18:40.002Z,4.68
2022-08-10T23:21:13.085Z,4.88
2022-08-10T23:23:42.075Z,4.75
2022-08-10T23:26:11.578Z,4.60
2022-08-10T23:28:58.154Z,4.03
2022-08-10T23:32:06.175Z,4.32
2022-08-10T23:34:23.667Z,4.30
2022-08-10T23:36:51.753Z,3.80
2022-08-10T23:39:25.661Z,3.95
2022-08-10T23:41:59.748Z,3.80
2022-08-10T23:44:36.963Z,3.80
2022-08-10T23:47:04.648Z,3.40
2022-08-10T23:49:34.265Z,3.85
2022-08-10T23:52:08.403Z,3.80
2022-08-10T23:54:41.328Z,4.13
2022-08-10T23:57:08.608Z,3.90
2022-08-10T23:59:37.504Z,3.85
